Time;durP1;ratioP1;P1;durP2;ratioP2;P2;SDS_P1;SDS_P2;PMS_P1;PMS_P2;Temp;Humidity;BMP_temperature;BMP_pressure;BME280_temperature;BME280_humidity;BME280_pressure;Samples;Min_cycle;Max_cycle;Signal;HPM_P1;HPM_P2
2021/12/10 00:00:13;;;;;;;47.70;25.35;;;;;;;;;;5032825;28;20045;-71
2021/12/10 00:02:39;;;;;;;49.95;25.30;;;;;;;;;;5034240;28;20033;-71
2021/12/10 00:05:06;;;;;;;55.25;26.17;;;;;;;;;;5053026;28;20131;-71
2021/12/10 00:07:33;;;;;;;56.40;28.60;;;;;;;;;;5053001;28;20029;-69
2021/12/10 00:10:05;;;;;;;46.80;25.20;;;;;;;;;;5052919;28;20400;-69
2021/12/10 00:12:35;;;;;;;45.60;24.08;;;;;;;;;;5053034;28;20041;-69
2021/12/10 00:15:03;;;;;;;54.15;26.73;;;;;;;;;;5052049;28;20411;-69
2021/12/10 00:17:30;;;;;;;49.15;25.48;;;;;;;;;;5053223;28;20041;-69
2021/12/10 00:20:01;;;;;;;46.53;23.52;;;;;;;;;;5053047;28;20029;-69
2021/12/10 00:22:40;;;;;;;51.75;24.58;;;;;;;;;;5052890;28;20399;-69
2021/12/10 00:25:09;;;;;;;46.70;24.25;;;;;;;;;;5035192;28;20087;-69
2021/12/10 00:27:37;;;;;;;49.10;25.33;;;;;;;;;;5052818;28;20025;-68
2021/12/10 00:30:09;;;;;;;49.92;26.05;;;;;;;;;;5052662;28;20033;-68
2021/12/10 00:32:38;;;;;;;45.17;24.88;;;;;;;;;;5035250;28;20091;-68
2021/12/10 00:35:06;;;;;;;46.38;24.85;;;;;;;;;;5052724;28;20028;-69
2021/12/10 00:37:33;;;;;;;48.92;25.25;;;;;;;;;;5052698;28;20557;-69
2021/12/10 00:40:03;;;;;;;46.05;24.00;;;;;;;;;;5035145;28;20146;-71
2021/12/10 00:42:31;;;;;;;46.38;24.70;;;;;;;;;;5034909;28;20503;-71
2021/12/10 00:44:59;;;;;;;42.78;23.85;;;;;;;;;;5034649;28;20075;-70
2021/12/10 00:47:28;;;;;;;44.90;23.95;;;;;;;;;;5034603;28;20037;-71
2021/12/10 00:49:54;;;;;;;41.60;22.75;;;;;;;;;;5052806;28;20467;-70
2021/12/10 00:52:22;;;;;;;45.50;23.63;;;;;;;;;;5036155;28;20040;-71
2021/12/10 00:54:49;;;;;;;41.17;23.80;;;;;;;;;;5055993;28;20127;-70
2021/12/10 00:57:15;;;;;;;43.92;23.52;;;;;;;;;;5056024;28;20045;-69
2021/12/10 00:59:41;;;;;;;41.60;22.38;;;;;;;;;;5056243;28;20032;-70
2021/12/10 01:02:09;;;;;;;41.75;22.45;;;;;;;;;;5055979;28;20044;-69
2021/12/10 01:04:37;;;;;;;;;;;;;;;;;;5038644;28;20063;-69
2021/12/10 01:07:06;;;;;;;43.42;23.00;;;;;;;;;;5055887;28;20346;-69
2021/12/10 01:09:33;;;;;;;40.55;22.10;;;;;;;;;;5055803;28;20100;-69
2021/12/10 01:12:04;;;;;;;43.85;23.17;;;;;;;;;;5055691;28;20037;-70
2021/12/10 01:14:41;;;;;;;45.70;24.63;;;;;;;;;;5056043;28;20049;-69
2021/12/10 01:28:11;;;;;;;43.92;23.80;;;;;;;;;;5022150;28;20041;-69
2021/12/10 01:30:39;;;;;;;44.58;24.77;;;;;;;;;;5055477;28;20017;-70
2021/12/10 01:33:13;;;;;;;51.90;26.08;;;;;;;;;;5055518;28;20041;-70
2021/12/10 01:35:41;;;;;;;52.75;27.70;;;;;;;;;;5055580;28;20037;-70
2021/12/10 01:38:08;;;;;;;49.70;27.65;;;;;;;;;;5055617;28;20029;-70
2021/12/10 01:40:35;;;;;;;53.80;28.80;;;;;;;;;;5055277;28;20402;-70
2021/12/10 01:43:08;;;;;;;49.25;26.27;;;;;;;;;;5055490;28;20033;-70
2021/12/10 01:45:35;;;;;;;46.00;23.95;;;;;;;;;;5054136;28;20372;-70
2021/12/10 01:48:04;;;;;;;44.42;25.30;;;;;;;;;;5037489;28;20087;-70
2021/12/10 01:50:31;;;;;;;44.33;24.42;;;;;;;;;;5054984;28;20029;-69
2021/12/10 01:52:59;;;;;;;40.95;23.25;;;;;;;;;;5055334;28;20384;-69
2021/12/10 01:55:26;;;;;;;42.10;23.90;;;;;;;;;;5037221;28;20041;-71
2021/12/10 01:57:52;;;;;;;43.80;23.33;;;;;;;;;;5037621;28;20387;-71
2021/12/10 02:00:22;;;;;;;44.47;24.55;;;;;;;;;;5054694;28;20537;-72
2021/12/10 02:02:48;;;;;;;59.73;31.63;;;;;;;;;;5054430;28;20040;-71
2021/12/10 02:05:14;;;;;;;71.70;36.53;;;;;;;;;;5036174;28;20085;-71
2021/12/10 02:07:40;;;;;;;58.10;31.38;;;;;;;;;;5054763;28;20061;-71
2021/12/10 02:10:07;;;;;;;50.78;30.02;;;;;;;;;;5054067;28;20029;-70
2021/12/10 02:12:33;;;;;;;59.97;31.48;;;;;;;;;;5055309;28;20021;-70
2021/12/10 02:15:03;;;;;;;50.92;26.58;;;;;;;;;;5054731;28;20058;-71
2021/12/10 02:17:40;;;;;;;48.47;25.90;;;;;;;;;;5054923;28;20147;-69
2021/12/10 02:20:16;;;;;;;47.45;25.67;;;;;;;;;;5036795;28;20037;-69
2021/12/10 02:22:44;;;;;;;54.25;27.95;;;;;;;;;;5037074;28;20043;-69
2021/12/10 02:25:10;;;;;;;48.60;26.63;;;;;;;;;;5054285;28;20029;-69
2021/12/10 02:27:35;;;;;;;52.22;27.73;;;;;;;;;;5054320;28;20048;-69
2021/12/10 02:30:03;;;;;;;47.67;27.42;;;;;;;;;;5036294;28;20391;-69
2021/12/10 02:32:29;;;;;;;46.08;27.42;;;;;;;;;;5054415;28;20032;-68
2021/12/10 02:34:54;;;;;;;49.38;28.08;;;;;;;;;;5054099;28;20112;-68
2021/12/10 02:37:20;;;;;;;49.95;28.15;;;;;;;;;;5054362;28;20064;-68
2021/12/10 02:39:46;;;;;;;52.85;29.58;;;;;;;;;;5054335;28;20033;-72
2021/12/10 02:42:13;;;;;;;52.85;28.63;;;;;;;;;;5054082;28;20052;-72
2021/12/10 02:44:39;;;;;;;52.78;29.17;;;;;;;;;;5053930;28;20036;-73
2021/12/10 02:47:05;;;;;;;51.30;28.75;;;;;;;;;;5053902;28;20033;-68
2021/12/10 02:49:30;;;;;;;54.17;30.17;;;;;;;;;;5053910;28;20060;-68
2021/12/10 02:51:56;;;;;;;53.63;28.77;;;;;;;;;;5053886;28;20492;-69
2021/12/10 02:54:32;;;;;;;54.22;29.05;;;;;;;;;;5052985;28;20486;-69
2021/12/10 02:56:58;;;;;;;55.35;29.00;;;;;;;;;;5054059;28;20033;-68
2021/12/10 02:59:23;;;;;;;59.22;31.08;;;;;;;;;;5053821;28;20027;-68
2021/12/10 03:01:50;;;;;;;59.42;30.65;;;;;;;;;;5054200;28;20374;-69
2021/12/10 03:04:16;;;;;;;53.33;29.17;;;;;;;;;;5053648;28;20598;-69
2021/12/10 03:06:50;;;;;;;58.20;30.85;;;;;;;;;;5053649;28;20514;-69
2021/12/10 03:09:16;;;;;;;60.97;31.65;;;;;;;;;;5036157;28;20025;-69
2021/12/10 03:11:46;;;;;;;61.03;32.08;;;;;;;;;;5053725;28;20020;-69
2021/12/10 03:14:13;;;;;;;54.57;29.80;;;;;;;;;;5054041;28;20037;-69
2021/12/10 03:16:40;;;;;;;58.05;29.85;;;;;;;;;;5053495;28;20761;-69
2021/12/10 03:19:06;;;;;;;58.08;30.75;;;;;;;;;;5053579;28;20087;-69
2021/12/10 03:21:32;;;;;;;55.17;29.25;;;;;;;;;;5035456;28;20394;-69
2021/12/10 03:23:58;;;;;;;49.22;26.92;;;;;;;;;;5035446;28;20129;-68
2021/12/10 03:26:24;;;;;;;52.63;27.58;;;;;;;;;;5053290;28;20057;-67
2021/12/10 03:28:51;;;;;;;51.13;28.35;;;;;;;;;;5053440;28;20522;-67
2021/12/10 03:31:17;;;;;;;54.30;29.27;;;;;;;;;;5053224;28;20476;-67
2021/12/10 03:33:44;;;;;;;52.38;30.00;;;;;;;;;;5053455;28;20041;-68
2021/12/10 03:36:10;;;;;;;57.45;30.70;;;;;;;;;;5053822;28;20467;-67
2021/12/10 03:38:37;;;;;;;56.50;29.85;;;;;;;;;;5035463;28;20045;-67
2021/12/10 03:41:03;;;;;;;51.60;28.60;;;;;;;;;;5053002;28;20040;-67
2021/12/10 03:43:29;;;;;;;62.45;31.38;;;;;;;;;;5052989;28;20048;-67
2021/12/10 03:45:56;;;;;;;54.08;29.63;;;;;;;;;;5035645;28;20025;-67
2021/12/10 03:48:24;;;;;;;54.05;30.15;;;;;;;;;;5053147;28;20095;-69
2021/12/10 03:50:50;;;;;;;55.08;28.40;;;;;;;;;;5053233;28;20025;-69
2021/12/10 03:53:16;;;;;;;57.85;31.85;;;;;;;;;;5053440;28;20029;-69
2021/12/10 03:55:41;;;;;;;57.53;31.02;;;;;;;;;;5052959;28;20471;-69
2021/12/10 03:58:07;;;;;;;55.95;29.63;;;;;;;;;;5035022;28;20037;-69
2021/12/10 04:00:35;;;;;;;55.58;30.30;;;;;;;;;;5035011;28;20453;-70
2021/12/10 04:03:01;;;;;;;57.47;30.60;;;;;;;;;;5052435;28;20049;-71
2021/12/10 04:05:27;;;;;;;55.15;29.38;;;;;;;;;;5052967;28;20037;-71
2021/12/10 04:07:54;;;;;;;60.28;32.83;;;;;;;;;;5053262;28;20391;-72
2021/12/10 04:10:19;;;;;;;50.95;28.45;;;;;;;;;;5053306;28;20108;-69
2021/12/10 04:12:45;;;;;;;50.40;27.90;;;;;;;;;;5053104;28;20064;-70
2021/12/10 04:15:13;;;;;;;50.10;27.52;;;;;;;;;;5052814;28;20506;-71
2021/12/10 04:17:39;;;;;;;48.42;25.65;;;;;;;;;;5052844;28;20040;-70
2021/12/10 04:20:07;;;;;;;51.28;27.27;;;;;;;;;;5052778;28;20033;-70
2021/12/10 04:22:33;;;;;;;52.67;27.52;;;;;;;;;;5053267;28;20036;-70
2021/12/10 04:25:04;;;;;;;45.28;24.75;;;;;;;;;;5035108;28;20029;-69
2021/12/10 04:27:31;;;;;;;48.75;27.27;;;;;;;;;;5054883;28;20132;-69
2021/12/10 04:29:58;;;;;;;50.45;27.55;;;;;;;;;;5056563;28;20029;-69
2021/12/10 04:32:33;;;;;;;54.65;28.45;;;;;;;;;;5056502;28;20033;-70
2021/12/10 04:35:11;;;;;;;51.28;28.45;;;;;;;;;;5053753;28;20045;-70
2021/12/10 04:37:39;;;;;;;54.80;30.27;;;;;;;;;;5056397;28;20033;-70
2021/12/10 04:40:13;;;;;;;59.90;32.65;;;;;;;;;;5038966;28;20037;-68
2021/12/10 04:42:52;;;;;;;57.25;33.85;;;;;;;;;;5039502;28;20399;-71
2021/12/10 04:45:24;;;;;;;65.45;33.15;;;;;;;;;;5021927;28;20033;-71
2021/12/10 04:47:49;;;;;;;63.03;33.97;;;;;;;;;;5056750;28;20383;-71
2021/12/10 04:50:18;;;;;;;68.45;35.53;;;;;;;;;;5038501;28;20044;-69
2021/12/10 04:52:43;;;;;;;60.22;33.28;;;;;;;;;;5038840;28;20029;-70
2021/12/10 04:55:10;;;;;;;64.10;34.40;;;;;;;;;;5056063;28;20091;-70
2021/12/10 04:57:37;;;;;;;66.63;35.05;;;;;;;;;;5056213;28;20035;-71
2021/12/10 05:00:05;;;;;;;57.75;32.13;;;;;;;;;;5056518;28;20040;-71
2021/12/10 05:02:33;;;;;;;54.85;29.75;;;;;;;;;;5055897;28;20455;-71
2021/12/10 05:04:59;;;;;;;57.65;31.05;;;;;;;;;;5055892;28;20069;-71
2021/12/10 05:07:25;;;;;;;59.50;32.60;;;;;;;;;;5055863;28;20071;-76
2021/12/10 05:09:51;;;;;;;60.42;33.25;;;;;;;;;;5055438;28;20033;-75
2021/12/10 05:12:17;;;;;;;70.40;38.75;;;;;;;;;;5055718;28;20430;-76
2021/12/10 05:14:43;;;;;;;79.13;42.80;;;;;;;;;;5021542;28;20037;-76
2021/12/10 05:17:10;;;;;;;83.82;43.63;;;;;;;;;;5055798;28;20025;-76
2021/12/10 05:19:36;;;;;;;69.85;38.53;;;;;;;;;;5055532;28;20534;-71
2021/12/10 05:22:03;;;;;;;57.63;33.33;;;;;;;;;;5055446;28;20033;-68
2021/12/10 05:24:30;;;;;;;65.72;35.13;;;;;;;;;;5055399;28;20037;-74
2021/12/10 05:26:56;;;;;;;59.88;33.40;;;;;;;;;;5054947;28;20116;-72
2021/12/10 05:29:25;;;;;;;61.65;33.25;;;;;;;;;;5055865;28;20068;-73
2021/12/10 05:31:51;;;;;;;61.70;32.50;;;;;;;;;;5055402;28;20040;-73
2021/12/10 05:34:17;;;;;;;72.40;35.38;;;;;;;;;;5055602;28;20037;-74
2021/12/10 05:36:43;;;;;;;65.93;33.85;;;;;;;;;;5055428;28;20052;-73
2021/12/10 05:39:11;;;;;;;64.00;33.60;;;;;;;;;;5037583;28;20124;-73
2021/12/10 05:41:37;;;;;;;57.25;32.20;;;;;;;;;;5037517;28;20078;-75
2021/12/10 05:44:04;;;;;;;63.95;34.40;;;;;;;;;;5054986;28;20079;-75
2021/12/10 05:46:31;;;;;;;61.20;33.00;;;;;;;;;;5052796;28;20033;-75
2021/12/10 05:48:56;;;;;;;59.40;34.42;;;;;;;;;;5054943;28;20037;-75
2021/12/10 05:54:56;;;;;;;62.55;34.15;;;;;;;;;;5055669;28;20031;-71
2021/12/10 06:01:02;;;;;;;62.45;34.58;;;;;;;;;;5055508;28;20077;-72
2021/12/10 06:10:25;;;;;;;66.35;37.03;;;;;;;;;;5055343;28;20195;-71
2021/12/10 06:16:26;;;;;;;63.10;35.80;;;;;;;;;;5055217;28;20036;-74
2021/12/10 06:18:51;;;;;;;70.25;38.33;;;;;;;;;;5054422;28;20033;-75
2021/12/10 06:21:18;;;;;;;72.30;40.45;;;;;;;;;;5054353;28;20013;-74
2021/12/10 06:23:44;;;;;;;75.57;40.40;;;;;;;;;;5054321;28;20514;-73
2021/12/10 06:26:10;;;;;;;75.47;41.33;;;;;;;;;;5054313;28;20025;-73
2021/12/10 06:28:36;;;;;;;74.40;41.42;;;;;;;;;;5054354;28;20036;-73
2021/12/10 06:31:02;;;;;;;68.78;38.63;;;;;;;;;;5054085;28;20021;-74
2021/12/10 06:33:29;;;;;;;72.97;38.15;;;;;;;;;;5036328;28;20044;-73
2021/12/10 06:35:56;;;;;;;69.20;38.20;;;;;;;;;;5054252;28;20021;-73
2021/12/10 06:38:23;;;;;;;69.38;37.28;;;;;;;;;;5036248;28;20083;-74
2021/12/10 06:44:24;;;;;;;78.28;42.78;;;;;;;;;;5054544;28;20493;-72
2021/12/10 06:50:26;;;;;;;66.47;36.22;;;;;;;;;;5053870;28;20031;-72
2021/12/10 06:56:29;;;;;;;68.15;37.92;;;;;;;;;;5054464;28;20031;-72
2021/12/10 07:02:29;;;;;;;60.47;34.05;;;;;;;;;;5054369;28;20178;-72
2021/12/10 07:16:04;;;;;;;59.53;32.83;;;;;;;;;;5054359;28;20047;-71
2021/12/10 07:22:05;;;;;;;60.13;33.50;;;;;;;;;;5054035;28;20422;-70
2021/12/10 07:28:06;;;;;;;58.65;32.88;;;;;;;;;;5054244;28;20028;-70
2021/12/10 07:34:06;;;;;;;60.50;32.80;;;;;;;;;;5053612;28;20032;-70
2021/12/10 07:40:08;;;;;;;63.20;34.13;;;;;;;;;;5053814;28;20036;-71
2021/12/10 07:46:09;;;;;;;50.08;27.23;;;;;;;;;;5053814;28;20100;-70
2021/12/10 07:52:16;;;;;;;48.63;25.60;;;;;;;;;;5053719;28;20403;-70
2021/12/10 08:01:55;;;;;;;34.85;19.80;;;;;;;;;;5054466;28;20035;-70
2021/12/10 08:07:56;;;;;;;52.03;30.58;;;;;;;;;;5057642;28;20028;-71
2021/12/10 08:17:45;;;;;;;68.50;34.92;;;;;;;;;;5057454;28;20116;-70
2021/12/10 08:23:45;;;;;;;68.50;35.72;;;;;;;;;;5057270;28;20150;-70
2021/12/10 08:29:45;;;;;;;63.55;34.75;;;;;;;;;;5056986;28;20032;-70
2021/12/10 08:35:52;;;;;;;55.92;30.33;;;;;;;;;;5056821;28;20040;-70
2021/12/10 08:41:56;;;;;;;59.78;34.75;;;;;;;;;;5057053;28;20461;-70
2021/12/10 08:47:58;;;;;;;60.40;30.08;;;;;;;;;;5056706;28;20179;-70
2021/12/10 08:54:00;;;;;;;56.53;30.55;;;;;;;;;;5056922;28;20037;-70
2021/12/10 09:00:01;;;;;;;46.78;26.08;;;;;;;;;;5056446;28;20519;-70
2021/12/10 09:06:03;;;;;;;45.55;26.58;;;;;;;;;;5056567;28;20091;-71
2021/12/10 09:12:07;;;;;;;55.22;29.02;;;;;;;;;;5056491;28;20036;-71
2021/12/10 09:21:17;;;;;;;50.97;28.80;;;;;;;;;;5056295;28;20035;-71
2021/12/10 09:27:18;;;;;;;46.15;26.15;;;;;;;;;;5056382;28;20227;-71
2021/12/10 09:33:19;;;;;;;43.53;25.02;;;;;;;;;;5056250;28;20148;-71
2021/12/10 09:39:20;;;;;;;40.58;25.58;;;;;;;;;;5056149;28;20023;-71
2021/12/10 09:45:22;;;;;;;51.45;31.35;;;;;;;;;;5055596;28;20040;-71
2021/12/10 09:51:26;;;;;;;52.95;30.13;;;;;;;;;;5055728;28;20048;-71
2021/12/10 14:13:32;;;;;;;108.53;59.08;;;;;;;;;;5071661;28;20382;-70
2021/12/10 14:16:11;;;;;;;82.93;44.47;;;;;;;;;;5053004;28;20049;-70
2021/12/10 14:18:41;;;;;;;152.95;80.18;;;;;;;;;;5054616;28;20043;-70
2021/12/10 14:21:09;;;;;;;121.43;63.22;;;;;;;;;;5054789;28;20040;-71
2021/12/10 14:23:55;;;;;;;116.32;60.58;;;;;;;;;;5054318;28;20025;-72
2021/12/10 14:26:24;;;;;;;119.72;67.15;;;;;;;;;;5036511;28;20037;-72
2021/12/10 14:29:01;;;;;;;156.15;84.28;;;;;;;;;;5053990;28;20029;-71
2021/12/10 14:31:35;;;;;;;194.60;104.80;;;;;;;;;;5054312;28;20087;-71
2021/12/10 14:34:06;;;;;;;223.77;122.93;;;;;;;;;;5053507;28;20084;-72
2021/12/10 14:36:31;;;;;;;211.15;116.22;;;;;;;;;;5053081;28;20549;-71
2021/12/10 14:39:03;;;;;;;221.40;119.57;;;;;;;;;;5052198;28;20029;-72
2021/12/10 14:41:29;;;;;;;188.15;111.05;;;;;;;;;;5036236;28;20033;-71
2021/12/10 14:43:55;;;;;;;163.98;96.70;;;;;;;;;;5035999;28;20032;-71
2021/12/10 14:46:23;;;;;;;185.13;103.50;;;;;;;;;;5036087;28;20045;-71
2021/12/10 14:49:09;;;;;;;215.98;113.28;;;;;;;;;;5054032;28;20111;-71
2021/12/10 14:51:35;;;;;;;219.23;114.18;;;;;;;;;;5053937;28;20079;-71
2021/12/10 14:54:01;;;;;;;153.43;88.50;;;;;;;;;;5053682;28;20068;-71
2021/12/10 14:56:58;;;;;;;168.43;92.18;;;;;;;;;;5053218;28;20498;-71
2021/12/10 14:59:27;;;;;;;137.10;79.43;;;;;;;;;;5053378;28;20041;-70
2021/12/10 15:02:06;;;;;;;93.13;53.05;;;;;;;;;;5053745;28;20107;-70
2021/12/10 15:04:40;;;;;;;75.65;43.22;;;;;;;;;;5045277;28;20499;-66
2021/12/10 15:07:09;;;;;;;131.90;62.03;;;;;;;;;;5032482;28;20419;-66
2021/12/10 15:09:54;;;;;;;116.55;58.80;;;;;;;;;;5032366;28;20025;-66
2021/12/10 15:12:20;;;;;;;108.25;58.20;;;;;;;;;;5050175;28;20140;-66
2021/12/10 15:14:53;;;;;;;144.20;79.05;;;;;;;;;;5049990;28;20139;-67
2021/12/10 15:17:19;;;;;;;233.32;117.95;;;;;;;;;;5050688;28;20049;-67
2021/12/10 15:19:46;;;;;;;276.60;142.38;;;;;;;;;;5032367;28;20124;-66
2021/12/10 15:22:17;;;;;;;102.95;57.90;;;;;;;;;;5050647;28;20044;-66
2021/12/10 15:24:45;;;;;;;97.40;60.17;;;;;;;;;;5050728;28;20041;-66
2021/12/10 15:27:21;;;;;;;84.70;48.30;;;;;;;;;;5050329;28;20025;-66
2021/12/10 15:29:49;;;;;;;130.85;78.18;;;;;;;;;;5050821;28;20079;-67
2021/12/10 15:32:20;;;;;;;379.80;193.57;;;;;;;;;;5050592;28;20078;-66
2021/12/10 15:34:56;;;;;;;257.70;124.53;;;;;;;;;;5050188;28;20071;-67
2021/12/10 15:37:24;;;;;;;121.28;64.32;;;;;;;;;;5050613;28;20850;-66
2021/12/10 15:39:51;;;;;;;82.28;44.53;;;;;;;;;;5050674;28;20036;-66
2021/12/10 15:42:19;;;;;;;66.40;38.15;;;;;;;;;;5050476;28;20033;-66
2021/12/10 15:44:46;;;;;;;75.40;40.45;;;;;;;;;;5050210;28;20029;-66
2021/12/10 15:47:13;;;;;;;87.10;43.67;;;;;;;;;;5050559;28;20033;-70
2021/12/10 15:49:39;;;;;;;93.88;49.08;;;;;;;;;;5050019;28;20055;-66
2021/12/10 15:52:10;;;;;;;77.85;42.67;;;;;;;;;;5050941;28;20033;-66
2021/12/10 15:54:40;;;;;;;99.13;52.85;;;;;;;;;;5051037;28;20044;-67
2021/12/10 15:57:11;;;;;;;94.27;49.87;;;;;;;;;;5069415;28;20040;-66
2021/12/10 15:59:40;;;;;;;92.18;49.50;;;;;;;;;;5069460;28;20040;-66
2021/12/10 16:02:09;;;;;;;88.28;48.10;;;;;;;;;;5069417;28;20119;-67
2021/12/10 16:04:40;;;;;;;88.90;47.25;;;;;;;;;;5069238;28;20098;-66
2021/12/10 16:07:07;;;;;;;477.00;161.80;;;;;;;;;;5067033;28;20123;-66
2021/12/10 16:09:33;;;;;;;631.80;253.13;;;;;;;;;;5069086;28;20020;-66
2021/12/10 16:11:58;;;;;;;630.13;246.30;;;;;;;;;;5069159;28;20079;-66
2021/12/10 16:14:29;;;;;;;237.45;107.75;;;;;;;;;;5068592;28;20064;-66
2021/12/10 16:16:56;;;;;;;165.30;81.57;;;;;;;;;;5070297;28;20802;-66
2021/12/10 16:22:59;;;;;;;345.10;162.43;;;;;;;;;;5074396;28;20028;-67
2021/12/10 16:39:46;;;;;;;133.95;61.78;;;;;;;;;;5015110;28;20089;-67
2021/12/10 16:49:59;;;;;;;185.35;88.50;;;;;;;;;;5015174;28;20103;-68
2021/12/10 16:56:01;;;;;;;547.05;294.42;;;;;;;;;;5015092;28;20036;-67
2021/12/10 16:58:27;;;;;;;245.65;123.88;;;;;;;;;;5014142;28;20121;-67
2021/12/10 17:00:57;;;;;;;223.40;116.07;;;;;;;;;;5010167;28;20817;-67
2021/12/10 17:03:26;;;;;;;100.78;57.33;;;;;;;;;;5038109;28;20044;-67
2021/12/10 17:05:52;;;;;;;97.55;54.63;;;;;;;;;;5054914;28;20052;-67
2021/12/10 17:08:19;;;;;;;110.47;57.38;;;;;;;;;;5072758;28;20039;-67
2021/12/10 17:10:59;;;;;;;269.30;136.90;;;;;;;;;;5072913;28;20044;-67
2021/12/10 17:13:28;;;;;;;145.88;77.70;;;;;;;;;;5072816;28;20139;-67
2021/12/10 17:15:53;;;;;;;116.95;63.17;;;;;;;;;;5071260;28;20107;-67
2021/12/10 17:18:22;;;;;;;113.28;64.80;;;;;;;;;;5053091;28;20491;-67
2021/12/10 17:20:55;;;;;;;119.90;65.03;;;;;;;;;;5071171;28;20070;-67
2021/12/10 17:23:22;;;;;;;121.75;66.38;;;;;;;;;;5071023;28;20043;-68
2021/12/10 17:25:52;;;;;;;150.90;80.28;;;;;;;;;;5071625;28;20037;-68
2021/12/10 17:28:19;;;;;;;189.60;97.93;;;;;;;;;;5071984;28;20037;-68
2021/12/10 17:30:45;;;;;;;199.95;111.05;;;;;;;;;;5052904;28;20040;-68
2021/12/10 17:33:13;;;;;;;194.05;109.75;;;;;;;;;;5071130;28;20103;-68
2021/12/10 17:35:43;;;;;;;176.18;99.32;;;;;;;;;;5071105;28;20028;-68
2021/12/10 17:38:11;;;;;;;150.82;84.13;;;;;;;;;;5071718;28;20051;-68
2021/12/10 17:40:47;;;;;;;158.45;88.28;;;;;;;;;;5052780;28;20086;-68
2021/12/10 17:43:14;;;;;;;178.85;94.65;;;;;;;;;;5052232;28;20040;-68
2021/12/10 17:45:42;;;;;;;211.02;107.30;;;;;;;;;;5071128;28;20115;-68
2021/12/10 17:48:10;;;;;;;139.35;75.65;;;;;;;;;;5071157;28;20041;-68
2021/12/10 17:50:40;;;;;;;102.05;59.35;;;;;;;;;;5052694;28;20028;-68
2021/12/10 17:53:08;;;;;;;205.77;167.63;;;;;;;;;;5070880;28;20048;-68
2021/12/10 17:55:36;;;;;;;96.63;67.60;;;;;;;;;;5071330;28;20051;-68
2021/12/10 17:58:04;;;;;;;167.40;104.18;;;;;;;;;;5071248;28;20074;-68
2021/12/10 18:00:33;;;;;;;222.60;119.05;;;;;;;;;;5071286;28;20025;-68
2021/12/10 18:03:03;;;;;;;132.23;71.88;;;;;;;;;;5071134;28;20059;-68
2021/12/10 18:05:30;;;;;;;;;;;;;;;;;;5071987;28;20048;-68
2021/12/10 18:07:59;;;;;;;109.95;62.00;;;;;;;;;;5071377;28;20017;-68
2021/12/10 18:10:27;;;;;;;304.35;162.43;;;;;;;;;;5053106;28;20594;-68
2021/12/10 18:12:56;;;;;;;358.45;238.00;;;;;;;;;;5071336;28;20032;-68
2021/12/10 18:15:25;;;;;;;98.40;56.25;;;;;;;;;;5033640;28;1070462;-68
2021/12/10 18:17:58;;;;;;;88.32;48.22;;;;;;;;;;5071463;28;20042;-68
2021/12/10 18:20:29;;;;;;;100.00;52.78;;;;;;;;;;5072346;28;20036;-68
2021/12/10 18:23:07;;;;;;;93.30;51.78;;;;;;;;;;5071846;28;20486;-68
2021/12/10 18:25:53;;;;;;;93.75;52.70;;;;;;;;;;5071822;28;20052;-68
2021/12/10 18:28:21;;;;;;;86.10;47.55;;;;;;;;;;5071840;28;20041;-68
2021/12/10 18:30:48;;;;;;;91.47;49.35;;;;;;;;;;5071811;28;20021;-68
2021/12/10 18:33:14;;;;;;;99.53;63.42;;;;;;;;;;5071508;28;20045;-68
2021/12/10 18:35:42;;;;;;;117.13;81.50;;;;;;;;;;5071696;28;20110;-68
2021/12/10 18:38:08;;;;;;;87.03;52.45;;;;;;;;;;5071624;28;20123;-68
2021/12/10 18:40:39;;;;;;;175.02;89.18;;;;;;;;;;5053357;28;20526;-68
2021/12/10 18:43:08;;;;;;;126.47;76.25;;;;;;;;;;5071306;28;20113;-68
2021/12/10 18:45:38;;;;;;;183.40;102.75;;;;;;;;;;5070651;28;20127;-68
2021/12/10 18:48:07;;;;;;;146.88;77.22;;;;;;;;;;5071518;28;20036;-68
2021/12/10 18:50:52;;;;;;;131.02;66.25;;;;;;;;;;5071595;28;20111;-68
2021/12/10 18:53:19;;;;;;;132.93;64.32;;;;;;;;;;5071396;28;20051;-68
2021/12/10 18:55:48;;;;;;;167.95;92.80;;;;;;;;;;5071219;28;20046;-68
2021/12/10 18:58:16;;;;;;;102.70;53.95;;;;;;;;;;5071587;28;20041;-68
2021/12/10 19:04:22;;;;;;;111.00;58.35;;;;;;;;;;5074345;28;20024;-68
2021/12/10 19:10:31;;;;;;;154.00;80.55;;;;;;;;;;5074305;28;20023;-68
2021/12/10 19:27:17;;;;;;;90.45;46.85;;;;;;;;;;5074060;28;20097;-68
2021/12/10 19:33:21;;;;;;;121.30;53.92;;;;;;;;;;5074048;28;20026;-68
2021/12/10 19:35:49;;;;;;;106.97;50.72;;;;;;;;;;5070891;28;20048;-68
2021/12/10 19:38:19;;;;;;;100.47;48.83;;;;;;;;;;5070482;28;20036;-65
2021/12/10 19:40:48;;;;;;;103.82;49.10;;;;;;;;;;5070509;28;20040;-65
2021/12/10 19:43:25;;;;;;;100.10;46.30;;;;;;;;;;5070318;28;20075;-64
2021/12/10 19:45:52;;;;;;;88.80;44.63;;;;;;;;;;5070340;28;20041;-64
2021/12/10 19:48:23;;;;;;;73.72;38.42;;;;;;;;;;5070352;28;20114;-65
2021/12/10 19:50:51;;;;;;;76.00;38.17;;;;;;;;;;5070213;28;20040;-65
2021/12/10 19:53:20;;;;;;;80.72;41.22;;;;;;;;;;5070661;28;20025;-65
2021/12/10 19:56:06;;;;;;;89.82;41.83;;;;;;;;;;5051913;28;20469;-65
2021/12/10 19:58:34;;;;;;;83.95;41.75;;;;;;;;;;5074410;28;20057;-65
2021/12/10 20:01:17;;;;;;;73.40;38.22;;;;;;;;;;5074736;28;20602;-60
2021/12/10 20:03:45;;;;;;;72.97;39.55;;;;;;;;;;5055790;28;20049;-66
2021/12/10 20:06:16;;;;;;;79.13;39.35;;;;;;;;;;5074422;28;20102;-63
2021/12/10 20:08:53;;;;;;;79.97;40.78;;;;;;;;;;5074474;28;20033;-64
2021/12/10 20:11:19;;;;;;;68.97;36.15;;;;;;;;;;5074217;28;20043;-63
2021/12/10 20:13:51;;;;;;;76.25;39.15;;;;;;;;;;5074076;28;20032;-62
2021/12/10 20:16:20;;;;;;;82.13;40.35;;;;;;;;;;5073091;28;20052;-63
2021/12/10 20:18:48;;;;;;;87.93;41.13;;;;;;;;;;5073808;28;20090;-63
2021/12/10 20:21:20;;;;;;;89.45;45.38;;;;;;;;;;5073493;28;20119;-63
2021/12/10 20:23:49;;;;;;;78.38;39.08;;;;;;;;;;5073566;28;20041;-63
2021/12/10 20:26:14;;;;;;;69.35;36.08;;;;;;;;;;5073251;28;20453;-62
2021/12/10 20:28:43;;;;;;;73.40;36.65;;;;;;;;;;5073731;28;20170;-63
2021/12/10 20:31:10;;;;;;;73.82;37.30;;;;;;;;;;5055714;28;20459;-62
2021/12/10 20:33:44;;;;;;;63.20;35.17;;;;;;;;;;5073001;28;20033;-63
2021/12/10 20:36:15;;;;;;;63.83;33.22;;;;;;;;;;5073260;28;20052;-62
2021/12/10 20:38:46;;;;;;;63.15;32.63;;;;;;;;;;5073534;28;20060;-63
2021/12/10 20:41:23;;;;;;;60.58;34.67;;;;;;;;;;5073428;28;20051;-63
2021/12/10 20:43:51;;;;;;;76.22;35.00;;;;;;;;;;5072923;28;20052;-63
2021/12/10 20:46:20;;;;;;;79.22;37.88;;;;;;;;;;5072819;28;20040;-63
2021/12/10 20:48:48;;;;;;;86.57;42.15;;;;;;;;;;5073002;28;20037;-63
2021/12/10 20:51:17;;;;;;;76.03;38.28;;;;;;;;;;5073134;28;20093;-63
2021/12/10 20:53:48;;;;;;;66.30;33.03;;;;;;;;;;5073139;28;20037;-63
2021/12/10 20:56:16;;;;;;;55.53;30.70;;;;;;;;;;5073303;28;20048;-63
2021/12/10 20:59:01;;;;;;;52.75;27.52;;;;;;;;;;5073406;28;20034;-63
2021/12/10 21:01:31;;;;;;;64.45;31.30;;;;;;;;;;5072875;28;20822;-62
2021/12/10 21:04:00;;;;;;;49.30;26.83;;;;;;;;;;5072471;28;20418;-70
2021/12/10 21:06:33;;;;;;;54.05;29.80;;;;;;;;;;5071717;28;20044;-69
2021/12/10 21:09:10;;;;;;;54.50;27.48;;;;;;;;;;5052483;28;20078;-71
2021/12/10 21:11:39;;;;;;;49.75;26.40;;;;;;;;;;5070350;28;20662;-68
2021/12/10 21:14:08;;;;;;;56.10;28.13;;;;;;;;;;5071418;28;20051;-69
2021/12/10 21:16:41;;;;;;;54.27;29.00;;;;;;;;;;5052918;28;20166;-70
2021/12/10 21:19:10;;;;;;;50.17;28.88;;;;;;;;;;5045238;28;20047;-63
2021/12/10 21:21:44;;;;;;;57.85;28.23;;;;;;;;;;5053829;28;20032;-62
2021/12/10 21:24:19;;;;;;;52.67;26.08;;;;;;;;;;5073300;28;20040;-62
2021/12/10 21:26:49;;;;;;;55.78;27.27;;;;;;;;;;5076759;28;20036;-62
2021/12/10 21:29:33;;;;;;;47.85;24.15;;;;;;;;;;5077821;28;20035;-62
2021/12/10 21:32:02;;;;;;;43.67;23.98;;;;;;;;;;5083857;28;20119;-62
2021/12/10 21:34:32;;;;;;;46.00;24.58;;;;;;;;;;5082401;28;20073;-62
2021/12/10 21:39:28;;;;;;;48.83;25.67;;;;;;;;;;5084818;28;20077;-71
2021/12/10 21:41:57;;;;;;;44.13;23.70;;;;;;;;;;5086408;28;20036;-70
2021/12/10 21:44:24;;;;;;;45.33;23.58;;;;;;;;;;5095803;28;20055;-69
2021/12/10 21:46:51;;;;;;;48.28;25.45;;;;;;;;;;5095612;28;20032;-69
2021/12/10 21:49:20;;;;;;;50.45;26.55;;;;;;;;;;5077140;28;20111;-69
2021/12/10 21:51:48;;;;;;;59.22;29.05;;;;;;;;;;5095521;28;20036;-70
2021/12/10 21:54:16;;;;;;;59.58;29.13;;;;;;;;;;5095448;28;20046;-70
2021/12/10 21:56:43;;;;;;;111.10;45.47;;;;;;;;;;5095395;28;20032;-70
2021/12/10 21:59:11;;;;;;;155.25;56.25;;;;;;;;;;5095239;28;20078;-70
2021/12/10 22:01:41;;;;;;;159.98;62.53;;;;;;;;;;5095004;28;20637;-70
2021/12/10 22:04:09;;;;;;;124.13;56.70;;;;;;;;;;5076972;28;20161;-70
2021/12/10 22:06:37;;;;;;;114.85;51.28;;;;;;;;;;5095079;28;20270;-70
2021/12/10 22:09:19;;;;;;;103.68;48.83;;;;;;;;;;5094910;28;20028;-70